»·PEaware :: NWA576 KABQ-KASE

NWA576 :: KABQ-KASE

FLIGHT INFORMATION

Flight Status: Arrived
Operator:
Northwest Airlines
More flights by this operator :: More flights under this callsign
Pilot: Anonymous 8274 (8274)
Aircraft: MCDONNELL-DOUGLAS MD-88
(MD88)
More flights by this aircraft type
Origin: KABQ Albuquerque Intl Sunport
United States
Destination: KASE Aspen-Pitkin Co/Sardy
United States
More flights between these airports :: More routes between these airports
Route: JEMEZ3 JEMEZ HELPS HBU
File this flight plan on PilotEdge
Remarks:
Altitude:
(Current/Filed)
28,000ft
Speed:
(Current/Filed)
440kts
Departed: 08-Dec-17 11:09 PM
Arrived: 09-Dec-17 12:03 AM
Distance/Time
Traveled:
251nm/0:54
Distance/Time
To Go:
Arrived

Flight Plot

Page will automatically refresh every two minutes.

Flight plan parsing failed; only flown route is shown


Map Options




Map Legend


Flown Route
Filed Route
Departure Airport
Arrival Airport
Navaid (VOR, NDB)
Fix

Horizontal Profiles

Position Reports

Time Latitude Longitude Heading Altitude Ground
Speed
08-Dec-17 22:39 35.047939 -106.614753 180 5315ft 0kts
08-Dec-17 22:40 35.047939 -106.614753 180 5315ft 0kts
08-Dec-17 22:41 35.047939 -106.614753 180 5315ft 0kts
08-Dec-17 22:42 35.047939 -106.614753 180 5315ft 0kts
08-Dec-17 22:43 35.047939 -106.614753 180 5315ft 0kts
08-Dec-17 22:44 35.047939 -106.614753 180 5315ft 0kts
08-Dec-17 22:45 35.047939 -106.614753 180 5315ft 0kts
08-Dec-17 22:46 35.047939 -106.614753 180 5315ft 0kts
08-Dec-17 22:47 35.047939 -106.614753 180 5315ft 0kts
08-Dec-17 22:48 35.047939 -106.614753 180 5315ft 0kts
08-Dec-17 22:49 35.047939 -106.614753 180 5315ft 0kts
08-Dec-17 22:50 35.047939 -106.614753 180 5315ft 0kts
08-Dec-17 22:51 35.047939 -106.614753 180 5315ft 0kts
08-Dec-17 22:52 35.047939 -106.614753 180 5315ft 0kts
08-Dec-17 22:53 35.047939 -106.614753 180 5315ft 0kts
08-Dec-17 22:54 35.047939 -106.614753 180 5315ft 0kts
08-Dec-17 22:55 35.047939 -106.614753 180 5315ft 0kts
08-Dec-17 22:56 35.047939 -106.614753 180 5315ft 0kts
08-Dec-17 22:57 35.047939 -106.614753 180 5315ft 0kts
08-Dec-17 22:58 35.047939 -106.614753 180 5315ft 0kts
08-Dec-17 22:59 35.047939 -106.614753 180 5315ft 0kts
08-Dec-17 23:00 35.047939 -106.614753 180 5315ft 0kts
08-Dec-17 23:01 35.047939 -106.614753 180 5315ft 0kts
08-Dec-17 23:02 35.047939 -106.614753 180 5315ft 0kts
08-Dec-17 23:03 35.047939 -106.614753 180 5315ft 0kts
08-Dec-17 23:04 35.047995 -106.614753 180 5315ft 1kts
08-Dec-17 23:05 35.048427 -106.615060 112 5315ft 2kts
08-Dec-17 23:06 35.048464 -106.615336 88 5315ft 0kts
08-Dec-17 23:07 35.048464 -106.615336 88 5315ft 0kts
08-Dec-17 23:08 35.048464 -106.615336 88 5315ft 0kts
08-Dec-17 23:09 35.048458 -106.614466 93 5315ft 6kts
08-Dec-17 23:10 35.046252 -106.613132 193 5315ft 19kts
08-Dec-17 23:11 35.045573 -106.619538 270 5315ft 19kts
08-Dec-17 23:12 35.044353 -106.620933 91 5315ft 0kts
08-Dec-17 23:13 35.044353 -106.620933 91 5315ft 0kts
08-Dec-17 23:14 35.044250 -106.603607 90 5316ft 149kts
08-Dec-17 23:15 35.044748 -106.548750 87 6938ft 183kts
08-Dec-17 23:16 35.086079 -106.527562 331 8003ft 241kts
08-Dec-17 23:17 35.147563 -106.576830 317 10347ft 280kts
08-Dec-17 23:18 35.199676 -106.649953 307 13106ft 294kts
08-Dec-17 23:19 35.249489 -106.730430 327 15123ft 320kts
08-Dec-17 23:20 35.335911 -106.793225 328 15755ft 394kts
08-Dec-17 23:21 35.431331 -106.861303 335 18542ft 401kts
08-Dec-17 23:22 35.539439 -106.879514 349 20397ft 381kts
08-Dec-17 23:23 35.640693 -106.894654 353 20863ft 369kts
08-Dec-17 23:24 35.742688 -106.910249 352 22811ft 379kts
08-Dec-17 23:25 35.847772 -106.926505 352 24596ft 389kts
08-Dec-17 23:26 35.956596 -106.938566 358 26253ft 399kts
08-Dec-17 23:27 36.067760 -106.932312 1 27696ft 409kts
08-Dec-17 23:28 36.180426 -106.924924 1 28428ft 407kts
08-Dec-17 23:29 36.293118 -106.917588 1 28429ft 408kts
08-Dec-17 23:30 36.405864 -106.910244 1 28427ft 408kts
08-Dec-17 23:31 36.518776 -106.902889 1 28426ft 407kts
08-Dec-17 23:32 36.631396 -106.895554 1 28425ft 407kts
08-Dec-17 23:33 36.741671 -106.888324 359 28424ft 405kts
08-Dec-17 23:34 36.850400 -106.881286 359 28423ft 405kts
08-Dec-17 23:35 36.960859 -106.874082 359 28420ft 406kts
08-Dec-17 23:36 37.076556 -106.866551 359 28423ft 421kts
08-Dec-17 23:37 37.190033 -106.859163 359 28429ft 419kts
08-Dec-17 23:39 37.302952 -106.851810 359 28535ft 420kts
08-Dec-17 23:40 37.419113 -106.844240 359 28536ft 419kts
08-Dec-17 23:41 37.535022 -106.836692 359 28535ft 418kts
08-Dec-17 23:42 37.650160 -106.834240 351 28325ft 410kts
08-Dec-17 23:43 37.760836 -106.850411 340 26494ft 401kts
08-Dec-17 23:44 37.859338 -106.909350 337 24149ft 384kts
08-Dec-17 23:45 37.962245 -106.932863 346 22330ft 384kts
08-Dec-17 23:46 38.067250 -106.955372 349 20493ft 385kts
08-Dec-17 23:47 38.165252 -106.976785 350 18720ft 373kts
08-Dec-17 23:48 38.260142 -106.997587 350 17007ft 360kts
08-Dec-17 23:49 38.356467 -107.018720 350 15995ft 346kts
08-Dec-17 23:50 38.449332 -107.039096 350 15996ft 354kts
08-Dec-17 23:51 38.544659 -107.029968 9 15995ft 354kts
08-Dec-17 23:52 38.641219 -107.009488 10 15994ft 354kts
08-Dec-17 23:53 38.735362 -106.975258 16 15994ft 350kts
08-Dec-17 23:54 38.820193 -106.941702 18 15965ft 296kts
08-Dec-17 23:55 38.891355 -106.911330 18 15995ft 274kts
08-Dec-17 23:56 38.963248 -106.879514 18 15996ft 278kts
08-Dec-17 23:57 39.033220 -106.848493 18 16105ft 242kts
08-Dec-17 23:58 39.093556 -106.822578 16 15171ft 219kts
08-Dec-17 23:59 39.146891 -106.810786 2 13116ft 205kts
09-Dec-17 00:00 39.200554 -106.819581 341 10852ft 191kts
09-Dec-17 00:01 39.245138 -106.843670 326 9076ft 156kts
09-Dec-17 00:02 39.247831 -106.885560 168 8105ft 154kts
09-Dec-17 00:03 39.204287 -106.870232 174 10429ft 172kts
09-Dec-17 00:04 39.166748 -106.839974 89 12089ft 190kts
09-Dec-17 00:05 39.207650 -106.823747 347 11485ft 175kts
09-Dec-17 00:06 39.252720 -106.838053 336 9482ft 163kts
09-Dec-17 00:07 39.255847 -106.883841 188 8179ft 158kts
09-Dec-17 00:08 39.219955 -106.867333 159 7780ft 82kts
09-Dec-17 00:09 39.216235 -106.864354 340 7779ft 20kts
09-Dec-17 00:10 39.249081 -106.882407 154 8071ft 158kts
09-Dec-17 00:11 39.235079 -106.877674 159 8545ft 179kts
09-Dec-17 00:12 39.235594 -106.877953 158 8512ft 179kts
09-Dec-17 00:13 39.198311 -106.821460 348 11862ft 180kts
09-Dec-17 00:14 39.264755 -106.859794 275 8785ft 166kts
09-Dec-17 00:14 39.242947 -106.878357 159 7986ft 157kts
09-Dec-17 00:16 39.265012 -106.863555 270 8710ft 165kts
09-Dec-17 00:17 39.261517 -106.847465 298 9053ft 164kts
09-Dec-17 00:18 39.245205 -106.879712 155 8013ft 158kts
09-Dec-17 00:19 39.215736 -106.865324 159 7779ft 42kts
09-Dec-17 00:19 39.216842 -106.864645 339 7779ft 26kts
09-Dec-17 00:20 39.220818 -106.865790 34 7779ft 0kts
09-Dec-17 00:21 39.220818 -106.865790 34 7779ft 0kts
09-Dec-17 00:23 39.220818 -106.865790 34 7779ft 0kts

Navigation Log

Ident Type
Flight plan parsing failed, navigation log unavailable